createdAt,value
2019-05-21T00:01:15.173Z,8.49
2019-05-21T00:03:41.426Z,8.46
2019-05-21T00:06:07.652Z,8.47
2019-05-21T00:08:33.909Z,8.47
2019-05-21T00:11:00.150Z,8.47
2019-05-21T00:13:26.410Z,8.42
2019-05-21T00:15:52.656Z,8.37
2019-05-21T00:18:18.900Z,8.32
2019-05-21T00:20:45.140Z,8.27
2019-05-21T00:23:11.387Z,8.22
2019-05-21T00:25:37.653Z,8.21
2019-05-21T00:28:33.336Z,8.19
2019-05-21T00:31:36.925Z,8.15
2019-05-21T00:34:43.948Z,8.06
2019-05-21T00:37:45.571Z,7.97
2019-05-21T00:40:48.829Z,7.91
2019-05-21T00:43:15.674Z,7.89
2019-05-21T00:45:41.914Z,7.90
2019-05-21T00:48:08.154Z,7.84
2019-05-21T00:50:34.404Z,7.75
2019-05-21T00:53:00.635Z,7.70
2019-05-21T00:55:26.888Z,7.62
2019-05-21T00:57:53.117Z,7.58
2019-05-21T01:00:19.623Z,7.54
2019-05-21T01:02:45.886Z,7.49
2019-05-21T01:05:12.623Z,7.44
2019-05-21T01:07:39.071Z,7.42
2019-05-21T01:10:05.397Z,7.39
2019-05-21T01:12:31.642Z,7.37
2019-05-21T01:14:57.872Z,7.34
2019-05-21T01:17:24.136Z,7.34
2019-05-21T01:19:50.366Z,7.34
2019-05-21T01:22:16.615Z,7.34
2019-05-21T01:24:42.870Z,7.28
2019-05-21T01:27:09.114Z,7.27
2019-05-21T01:29:35.327Z,7.24
2019-05-21T01:32:01.580Z,7.21
2019-05-21T01:34:27.814Z,7.19
2019-05-21T01:36:54.052Z,7.22
2019-05-21T01:39:20.291Z,7.26
2019-05-21T01:41:46.548Z,7.27
2019-05-21T01:44:12.763Z,7.26
2019-05-21T01:46:39.003Z,7.26
2019-05-21T01:49:05.240Z,7.28
2019-05-21T01:51:31.486Z,7.27
2019-05-21T01:53:57.728Z,7.04
2019-05-21T01:56:23.961Z,7.24
2019-05-21T01:58:50.222Z,7.26
2019-05-21T02:01:16.448Z,7.29
2019-05-21T02:03:42.718Z,7.33
2019-05-21T02:06:09.038Z,7.34
2019-05-21T02:08:35.281Z,7.34
2019-05-21T02:11:01.512Z,7.34
2019-05-21T02:13:27.755Z,7.37
2019-05-21T02:15:53.987Z,7.44
2019-05-21T02:18:20.249Z,7.50
2019-05-21T02:20:46.499Z,7.58
2019-05-21T02:23:12.740Z,7.62
2019-05-21T02:25:39.972Z,7.61
2019-05-21T02:28:06.226Z,7.61
2019-05-21T02:30:32.457Z,7.65
2019-05-21T02:32:58.718Z,7.67
2019-05-21T02:35:24.953Z,7.73
2019-05-21T02:37:51.229Z,7.74
2019-05-21T02:40:17.643Z,7.75
2019-05-21T02:42:43.883Z,7.77
2019-05-21T02:45:10.628Z,7.79
2019-05-21T02:47:36.857Z,7.79
2019-05-21T02:50:07.301Z,7.78
2019-05-21T02:52:33.537Z,7.79
2019-05-21T02:54:59.771Z,7.86
2019-05-21T02:57:44.195Z,7.95
2019-05-21T03:00:28.822Z,8.04
2019-05-21T03:02:55.057Z,8.07
2019-05-21T03:05:21.292Z,8.11
2019-05-21T03:07:47.542Z,8.13
2019-05-21T03:10:13.787Z,8.19
2019-05-21T03:12:40.016Z,8.30
2019-05-21T03:15:06.360Z,8.43
2019-05-21T03:17:32.608Z,8.56
2019-05-21T03:19:58.844Z,8.72
2019-05-21T03:22:25.075Z,8.86
2019-05-21T03:24:51.321Z,9.01
2019-05-21T03:27:17.549Z,9.17
2019-05-21T03:29:43.776Z,9.25
2019-05-21T03:32:10.017Z,9.35
2019-05-21T03:34:36.258Z,9.42
2019-05-21T03:37:02.597Z,9.50
2019-05-21T03:39:28.826Z,9.58
2019-05-21T03:41:55.110Z,9.70
2019-05-21T03:44:21.296Z,9.87
2019-05-21T03:46:47.573Z,10.04
2019-05-21T03:49:13.779Z,10.23
2019-05-21T03:51:40.019Z,10.50
2019-05-21T03:54:06.347Z,10.78
2019-05-21T03:56:32.605Z,11.09
2019-05-21T03:58:58.865Z,11.38
2019-05-21T04:01:25.114Z,11.73
2019-05-21T04:03:52.568Z,12.05
2019-05-21T04:06:18.877Z,12.27
2019-05-21T04:08:45.108Z,12.50
2019-05-21T04:11:11.363Z,12.84
2019-05-21T04:13:37.589Z,13.18
2019-05-21T04:16:08.446Z,13.54
2019-05-21T04:18:39.188Z,13.70
2019-05-21T04:21:05.453Z,13.85
2019-05-21T04:23:31.719Z,13.92
2019-05-21T04:25:57.962Z,14.01
2019-05-21T04:28:24.215Z,14.11
2019-05-21T04:30:50.494Z,13.91
2019-05-21T04:33:17.526Z,13.95
2019-05-21T04:35:43.760Z,14.03
2019-05-21T04:38:10.006Z,13.98
2019-05-21T04:40:36.242Z,14.06
2019-05-21T04:43:02.884Z,14.05
2019-05-21T04:45:29.268Z,14.08
2019-05-21T04:47:55.899Z,14.51
2019-05-21T04:50:22.338Z,14.87
2019-05-21T04:52:48.938Z,14.93
2019-05-21T04:55:15.190Z,15.28
2019-05-21T04:57:41.443Z,15.54
2019-05-21T05:00:07.992Z,15.70
2019-05-21T05:02:34.223Z,15.97
2019-05-21T05:05:00.671Z,16.23
2019-05-21T05:07:28.870Z,16.51
2019-05-21T05:09:55.065Z,16.60
2019-05-21T05:12:21.308Z,16.71
2019-05-21T05:14:47.564Z,16.60
2019-05-21T05:17:13.806Z,16.81
2019-05-21T05:19:40.503Z,17.20
2019-05-21T05:22:06.732Z,17.20
2019-05-21T05:24:32.989Z,17.64
2019-05-21T05:26:59.261Z,17.54
2019-05-21T05:29:25.523Z,17.76
2019-05-21T05:31:51.775Z,17.91
2019-05-21T05:34:18.038Z,17.92
2019-05-21T05:36:44.294Z,18.23
2019-05-21T05:39:10.559Z,18.41
2019-05-21T05:41:36.819Z,18.43
2019-05-21T05:44:03.387Z,18.10
2019-05-21T05:46:29.639Z,18.24
2019-05-21T05:48:57.691Z,18.44
2019-05-21T05:51:23.966Z,18.44
2019-05-21T05:53:56.429Z,18.31
2019-05-21T05:56:22.692Z,18.57
2019-05-21T05:58:49.340Z,18.68
2019-05-21T06:01:15.724Z,18.64
2019-05-21T06:03:41.955Z,18.79
2019-05-21T06:06:08.202Z,19.08
2019-05-21T06:08:34.468Z,19.33
2019-05-21T06:11:00.757Z,19.44
2019-05-21T06:13:27.004Z,19.78
2019-05-21T06:15:53.260Z,20.20
2019-05-21T06:18:19.489Z,19.91
2019-05-21T06:20:45.742Z,19.95
2019-05-21T06:23:11.984Z,19.83
2019-05-21T06:25:38.250Z,19.75
2019-05-21T06:28:04.489Z,20.38
2019-05-21T06:30:30.742Z,20.63
2019-05-21T06:32:56.981Z,20.78
2019-05-21T06:35:23.252Z,20.65
2019-05-21T06:37:49.486Z,20.82
2019-05-21T06:40:15.935Z,21.35
2019-05-21T06:42:42.204Z,21.14
2019-05-21T06:45:09.051Z,20.82
2019-05-21T06:47:35.305Z,20.32
2019-05-21T06:50:01.652Z,20.23
2019-05-21T06:52:27.888Z,20.29
2019-05-21T06:54:54.115Z,20.53
2019-05-21T06:57:20.374Z,20.62
2019-05-21T06:59:46.622Z,20.62
2019-05-21T07:02:12.910Z,20.90
2019-05-21T07:04:39.385Z,20.99
2019-05-21T07:07:05.697Z,21.11
2019-05-21T07:09:31.946Z,21.76
2019-05-21T07:11:58.192Z,21.84
2019-05-21T07:14:24.426Z,21.94
2019-05-21T07:16:50.707Z,22.13
2019-05-21T07:19:16.942Z,22.20
2019-05-21T07:21:43.191Z,22.17
2019-05-21T07:24:09.440Z,21.96
2019-05-21T07:26:35.694Z,21.77
2019-05-21T07:29:01.984Z,22.13
2019-05-21T07:31:28.221Z,22.57
2019-05-21T07:33:54.478Z,22.94
2019-05-21T07:36:20.725Z,23.52
2019-05-21T07:38:53.437Z,23.42
2019-05-21T07:41:15.142Z,23.63
2019-05-21T07:43:41.390Z,23.97
2019-05-21T07:46:07.634Z,24.05
2019-05-21T07:48:33.888Z,24.41
2019-05-21T07:51:00.227Z,24.95
2019-05-21T07:53:26.528Z,24.15
2019-05-21T07:55:52.769Z,24.26
2019-05-21T07:58:19.031Z,24.61
2019-05-21T08:00:45.262Z,25.26
2019-05-21T08:03:11.560Z,25.37
2019-05-21T08:05:37.803Z,25.61
2019-05-21T08:08:04.045Z,25.25
2019-05-21T08:10:30.320Z,25.40
2019-05-21T08:12:56.593Z,25.29
2019-05-21T08:15:22.844Z,25.41
2019-05-21T08:17:49.099Z,25.12
2019-05-21T08:20:15.961Z,25.15
2019-05-21T08:22:42.229Z,24.75
2019-05-21T08:25:08.596Z,24.48
2019-05-21T08:27:34.855Z,24.28
2019-05-21T08:30:01.088Z,24.23
2019-05-21T08:32:27.394Z,24.01
2019-05-21T08:34:53.652Z,23.90
2019-05-21T08:37:19.895Z,24.11
2019-05-21T08:39:46.161Z,24.36
2019-05-21T08:42:12.540Z,24.06
2019-05-21T08:44:38.909Z,23.62
2019-05-21T08:47:05.171Z,23.40
2019-05-21T08:49:31.463Z,23.05
2019-05-21T08:51:57.715Z,23.02
2019-05-21T08:54:42.476Z,23.28
2019-05-21T08:57:08.770Z,22.94
2019-05-21T08:59:35.017Z,22.68
2019-05-21T09:02:01.282Z,22.87
2019-05-21T09:04:45.448Z,23.04
2019-05-21T09:06:55.742Z,22.99
2019-05-21T09:09:22.011Z,23.30
2019-05-21T09:11:48.236Z,22.50
2019-05-21T09:14:14.481Z,22.51
2019-05-21T09:16:40.729Z,22.39
2019-05-21T09:19:06.987Z,22.59
2019-05-21T09:21:33.309Z,23.27
2019-05-21T09:23:59.615Z,23.82
2019-05-21T09:26:25.855Z,24.39
2019-05-21T09:28:52.114Z,24.30
2019-05-21T09:31:18.372Z,23.88
2019-05-21T09:33:44.623Z,24.05
2019-05-21T09:36:10.873Z,24.41
2019-05-21T09:38:37.119Z,24.72
2019-05-21T09:41:03.416Z,24.74
2019-05-21T09:43:29.659Z,24.99
2019-05-21T09:45:55.910Z,24.93
2019-05-21T09:48:22.156Z,24.90
2019-05-21T09:50:48.479Z,24.82
2019-05-21T09:53:14.716Z,24.40
2019-05-21T09:55:40.971Z,24.86
2019-05-21T09:58:11.520Z,25.56
2019-05-21T10:00:48.472Z,26.07
2019-05-21T10:03:22.064Z,26.24
2019-05-21T10:05:48.342Z,26.09
2019-05-21T10:08:14.579Z,25.96
2019-05-21T10:10:40.814Z,25.08
2019-05-21T10:13:07.068Z,24.79
2019-05-21T10:15:33.301Z,25.14
2019-05-21T10:17:59.549Z,24.91
2019-05-21T10:20:25.821Z,25.31
2019-05-21T10:22:52.076Z,25.25
2019-05-21T10:25:18.320Z,24.99
2019-05-21T10:27:44.645Z,24.74
2019-05-21T10:30:11.347Z,24.54
2019-05-21T10:32:37.600Z,23.79
2019-05-21T10:35:04.894Z,23.76
2019-05-21T10:37:31.546Z,23.59
2019-05-21T10:39:57.882Z,23.20
2019-05-21T10:42:24.158Z,22.85
2019-05-21T10:44:50.544Z,22.52
2019-05-21T10:47:16.781Z,22.48
2019-05-21T10:49:43.024Z,22.37
2019-05-21T10:52:09.261Z,22.36
2019-05-21T10:54:35.493Z,22.24
2019-05-21T10:57:01.852Z,22.57
2019-05-21T10:59:28.172Z,22.65
2019-05-21T11:01:58.755Z,22.63
2019-05-21T11:04:42.101Z,22.26
2019-05-21T11:07:09.750Z,22.04
2019-05-21T11:09:36.032Z,22.64
2019-05-21T11:12:02.287Z,23.39
2019-05-21T11:14:28.659Z,23.70
2019-05-21T11:16:55.347Z,22.87
2019-05-21T11:19:21.711Z,22.66
2019-05-21T11:21:47.948Z,22.56
2019-05-21T11:24:14.423Z,22.89
2019-05-21T11:26:40.758Z,22.96
2019-05-21T11:29:06.990Z,22.78
2019-05-21T11:31:33.325Z,22.45
2019-05-21T11:33:59.564Z,22.21
2019-05-21T11:36:25.825Z,22.69
2019-05-21T11:38:52.057Z,22.89
2019-05-21T11:41:18.301Z,22.44
2019-05-21T11:43:44.559Z,22.01
2019-05-21T11:46:10.839Z,22.10
2019-05-21T11:48:37.074Z,22.03
2019-05-21T11:51:03.523Z,22.31
2019-05-21T11:53:31.946Z,22.00
2019-05-21T11:55:57.945Z,22.00
2019-05-21T11:58:24.185Z,22.14
2019-05-21T12:00:50.577Z,22.77
2019-05-21T12:03:16.830Z,22.95
2019-05-21T12:05:43.102Z,23.38
2019-05-21T12:08:09.317Z,23.57
2019-05-21T12:10:35.612Z,23.46
2019-05-21T12:13:01.873Z,23.18
2019-05-21T12:15:28.235Z,22.90
2019-05-21T12:17:54.573Z,23.28
2019-05-21T12:20:35.194Z,23.29
2019-05-21T12:22:49.120Z,23.41
2019-05-21T12:25:15.468Z,22.96
2019-05-21T12:27:41.721Z,22.92
2019-05-21T12:30:08.375Z,22.79
2019-05-21T12:32:34.612Z,22.70
2019-05-21T12:35:00.845Z,22.44
2019-05-21T12:37:27.097Z,22.66
2019-05-21T12:39:53.337Z,22.98
2019-05-21T12:42:19.590Z,22.83
2019-05-21T12:44:45.862Z,22.39
2019-05-21T12:47:12.220Z,22.09
2019-05-21T12:49:38.467Z,22.07
2019-05-21T12:52:04.709Z,22.37
2019-05-21T12:54:30.961Z,22.37
2019-05-21T12:56:57.727Z,21.93
2019-05-21T12:59:23.969Z,21.46
2019-05-21T13:01:50.241Z,21.27
2019-05-21T13:04:16.494Z,21.12
2019-05-21T13:06:42.837Z,21.10
2019-05-21T13:09:09.299Z,21.11
2019-05-21T13:11:35.552Z,21.04
2019-05-21T13:14:01.832Z,21.02
2019-05-21T13:16:28.105Z,20.87
2019-05-21T13:18:54.398Z,20.90
2019-05-21T13:21:20.635Z,20.98
2019-05-21T13:23:46.897Z,20.82
2019-05-21T13:26:13.137Z,20.61
2019-05-21T13:28:39.491Z,20.54
2019-05-21T13:31:05.937Z,20.26
2019-05-21T13:33:32.173Z,20.16
2019-05-21T13:35:58.423Z,20.38
2019-05-21T13:38:24.686Z,20.50
2019-05-21T13:40:51.728Z,20.64
2019-05-21T13:43:21.129Z,20.51
2019-05-21T13:45:46.234Z,20.35
2019-05-21T13:48:12.481Z,20.48
2019-05-21T13:50:38.823Z,20.47
2019-05-21T13:53:05.065Z,20.52
2019-05-21T13:55:33.925Z,20.60
2019-05-21T13:57:59.793Z,20.56
2019-05-21T14:00:31.133Z,20.75
2019-05-21T14:02:57.585Z,20.93
2019-05-21T14:05:25.259Z,20.70
2019-05-21T14:07:51.490Z,20.31
2019-05-21T14:10:20.709Z,20.32
2019-05-21T14:12:45.897Z,20.16
2019-05-21T14:15:12.255Z,20.06
2019-05-21T14:17:38.489Z,20.11
2019-05-21T14:20:06.148Z,20.18
2019-05-21T14:22:36.255Z,20.07
2019-05-21T14:25:00.523Z,20.06
2019-05-21T14:27:43.194Z,20.22
2019-05-21T14:29:54.922Z,20.37
2019-05-21T14:32:21.232Z,20.19
2019-05-21T14:35:00.718Z,20.03
2019-05-21T14:37:15.706Z,20.00
2019-05-21T14:39:41.938Z,19.85
2019-05-21T14:42:08.168Z,19.79
2019-05-21T14:44:34.431Z,19.50
2019-05-21T14:47:00.668Z,19.47
2019-05-21T14:49:26.899Z,19.51
2019-05-21T14:51:53.144Z,19.43
2019-05-21T14:54:26.639Z,19.42
2019-05-21T14:56:48.078Z,19.36
2019-05-21T14:59:14.492Z,19.18
2019-05-21T15:01:40.737Z,19.20
2019-05-21T15:04:07.030Z,19.32
2019-05-21T15:06:33.349Z,19.29
2019-05-21T15:08:59.593Z,19.28
2019-05-21T15:11:25.834Z,19.13
2019-05-21T15:13:52.065Z,19.07
2019-05-21T15:16:18.535Z,19.05
2019-05-21T15:18:44.796Z,19.05
2019-05-21T15:21:18.421Z,18.87
2019-05-21T15:23:45.714Z,18.78
2019-05-21T15:26:12.601Z,18.75
2019-05-21T15:28:38.817Z,18.66
2019-05-21T15:31:05.070Z,18.68
2019-05-21T15:33:31.304Z,18.72
2019-05-21T15:35:57.568Z,18.58
2019-05-21T15:38:23.803Z,18.48
2019-05-21T15:41:08.384Z,18.42
2019-05-21T15:43:18.168Z,18.36
2019-05-21T15:45:44.503Z,18.34
2019-05-21T15:48:10.749Z,18.33
2019-05-21T15:50:38.192Z,18.35
2019-05-21T15:53:04.451Z,18.34
2019-05-21T15:55:32.206Z,17.53
2019-05-21T15:57:58.451Z,18.35
2019-05-21T16:00:24.995Z,18.35
2019-05-21T16:02:51.270Z,18.40
2019-05-21T16:05:17.544Z,18.43
2019-05-21T16:07:43.827Z,18.36
2019-05-21T16:10:10.400Z,18.28
2019-05-21T16:12:36.982Z,18.23
2019-05-21T16:15:06.559Z,18.20
2019-05-21T16:17:32.825Z,18.18
2019-05-21T16:19:59.077Z,18.15
2019-05-21T16:22:25.330Z,18.14
2019-05-21T16:24:53.378Z,18.11
2019-05-21T16:27:19.653Z,18.09
2019-05-21T16:29:45.911Z,18.05
2019-05-21T16:32:12.259Z,17.97
2019-05-21T16:34:38.528Z,17.90
2019-05-21T16:37:04.821Z,17.83
2019-05-21T16:39:31.676Z,17.84
2019-05-21T16:41:57.928Z,17.86
2019-05-21T16:44:24.193Z,17.89
2019-05-21T16:46:50.440Z,17.90
2019-05-21T16:49:16.712Z,17.90
2019-05-21T16:51:43.638Z,17.86
2019-05-21T16:54:10.137Z,17.79
2019-05-21T16:56:36.383Z,17.81
2019-05-21T16:59:02.943Z,17.79
2019-05-21T17:01:29.852Z,17.77
2019-05-21T17:03:59.891Z,17.70
2019-05-21T17:06:24.316Z,17.65
2019-05-21T17:08:50.610Z,17.64
2019-05-21T17:11:16.864Z,16.70
2019-05-21T17:13:43.189Z,17.60
2019-05-21T17:16:09.439Z,17.53
2019-05-21T17:18:35.699Z,17.48
2019-05-21T17:21:01.962Z,17.44
2019-05-21T17:23:28.223Z,17.44
2019-05-21T17:25:54.496Z,17.43
2019-05-21T17:28:20.735Z,17.41
2019-05-21T17:30:47.002Z,17.40
2019-05-21T17:33:13.276Z,17.37
2019-05-21T17:35:39.540Z,17.35
2019-05-21T17:38:05.786Z,17.25
2019-05-21T17:40:32.061Z,17.19
2019-05-21T17:42:58.307Z,17.17
2019-05-21T17:45:24.670Z,17.11
2019-05-21T17:47:51.117Z,17.05
2019-05-21T17:50:17.693Z,17.00
2019-05-21T17:52:43.950Z,16.91
2019-05-21T17:55:10.627Z,16.87
2019-05-21T17:57:37.227Z,16.89
2019-05-21T18:00:08.122Z,16.90
2019-05-21T18:02:34.378Z,16.80
2019-05-21T18:05:00.757Z,16.37
2019-05-21T18:07:27.933Z,16.71
2019-05-21T18:09:54.388Z,16.65
2019-05-21T18:12:31.525Z,16.58
2019-05-21T18:14:49.516Z,16.57
2019-05-21T18:17:17.787Z,16.49
2019-05-21T18:19:44.843Z,16.42
2019-05-21T18:22:12.738Z,16.36
2019-05-21T18:24:38.965Z,16.30
2019-05-21T18:27:05.243Z,16.21
2019-05-21T18:29:31.511Z,16.12
2019-05-21T18:31:57.747Z,16.01
2019-05-21T18:34:24.296Z,15.98
2019-05-21T18:36:50.665Z,15.92
2019-05-21T18:39:17.849Z,15.85
2019-05-21T18:41:44.098Z,15.77
2019-05-21T18:44:10.347Z,15.68
2019-05-21T18:46:36.609Z,15.60
2019-05-21T18:49:03.193Z,15.53
2019-05-21T18:51:29.443Z,15.53
2019-05-21T18:53:55.707Z,15.33
2019-05-21T18:56:21.951Z,15.33
2019-05-21T18:58:48.266Z,15.14
2019-05-21T19:01:15.008Z,15.18
2019-05-21T19:03:41.371Z,15.10
2019-05-21T19:06:07.726Z,14.97
2019-05-21T19:08:34.027Z,14.83
2019-05-21T19:11:00.284Z,14.72
2019-05-21T19:13:29.781Z,14.66
2019-05-21T19:15:56.105Z,14.59
2019-05-21T19:18:22.350Z,14.52
2019-05-21T19:20:50.058Z,14.41
2019-05-21T19:23:16.602Z,14.31
2019-05-21T19:25:42.832Z,14.18
2019-05-21T19:28:09.082Z,14.06
2019-05-21T19:30:35.934Z,13.99
2019-05-21T19:33:02.203Z,13.91
2019-05-21T19:35:28.618Z,13.78
2019-05-21T19:37:54.911Z,13.69
2019-05-21T19:40:21.565Z,13.61
2019-05-21T19:42:54.998Z,13.52
2019-05-21T19:45:16.177Z,13.37
2019-05-21T19:47:42.449Z,13.23
2019-05-21T19:50:09.152Z,13.16
2019-05-21T19:52:35.400Z,13.06
2019-05-21T19:55:02.061Z,12.93
2019-05-21T19:57:30.000Z,12.75
2019-05-21T19:59:56.251Z,12.59
2019-05-21T20:02:22.894Z,12.47
2019-05-21T20:04:49.169Z,12.34
2019-05-21T20:07:16.913Z,12.27
2019-05-21T20:09:45.039Z,12.16
2019-05-21T20:12:12.071Z,12.05
2019-05-21T20:14:38.540Z,11.97
2019-05-21T20:17:04.935Z,11.85
2019-05-21T20:19:31.654Z,11.77
2019-05-21T20:21:57.921Z,11.69
2019-05-21T20:24:24.450Z,11.59
2019-05-21T20:26:50.855Z,11.51
2019-05-21T20:29:17.099Z,11.41
2019-05-21T20:31:44.156Z,11.29
2019-05-21T20:34:10.845Z,11.23
2019-05-21T20:36:40.723Z,11.16
2019-05-21T20:39:08.714Z,11.08
2019-05-21T20:41:36.374Z,10.99
2019-05-21T20:44:03.724Z,10.88
2019-05-21T20:46:30.684Z,10.78
2019-05-21T20:48:58.139Z,10.71
2019-05-21T20:51:24.412Z,10.64
2019-05-21T20:53:50.658Z,10.53
2019-05-21T20:56:17.839Z,10.44
2019-05-21T20:58:44.857Z,10.41
2019-05-21T21:01:11.207Z,10.33
2019-05-21T21:03:37.434Z,10.23
2019-05-21T21:06:04.891Z,10.15
2019-05-21T21:08:32.942Z,10.06
2019-05-21T21:10:59.678Z,9.94
2019-05-21T21:13:28.141Z,9.84
2019-05-21T21:15:54.391Z,9.77
2019-05-21T21:18:20.830Z,9.71
2019-05-21T21:20:47.375Z,9.57
2019-05-21T21:23:15.925Z,9.50
2019-05-21T21:25:42.589Z,9.37
2019-05-21T21:28:08.939Z,9.28
2019-05-21T21:30:35.786Z,9.24
2019-05-21T21:33:03.853Z,9.14
2019-05-21T21:35:30.818Z,9.10
2019-05-21T21:37:58.459Z,9.01
2019-05-21T21:40:24.955Z,8.93
2019-05-21T21:42:51.886Z,8.79
2019-05-21T21:45:18.342Z,8.67
2019-05-21T21:47:44.724Z,8.63
2019-05-21T21:50:11.785Z,8.61
2019-05-21T21:52:39.040Z,8.56
2019-05-21T21:55:06.178Z,8.54
2019-05-21T21:57:32.411Z,8.47
2019-05-21T21:59:59.272Z,8.39
2019-05-21T22:02:30.211Z,8.27
2019-05-21T22:04:56.788Z,8.14
2019-05-21T22:07:23.007Z,8.05
2019-05-21T22:09:49.378Z,7.98
2019-05-21T22:12:17.013Z,7.92
2019-05-21T22:14:51.681Z,7.84
2019-05-21T22:17:13.332Z,7.75
2019-05-21T22:19:39.684Z,7.67
2019-05-21T22:22:06.707Z,7.61
2019-05-21T22:24:33.310Z,7.56
2019-05-21T22:26:59.552Z,7.58
2019-05-21T22:29:26.108Z,7.54
2019-05-21T22:31:52.458Z,7.46
2019-05-21T22:34:18.676Z,7.40
2019-05-21T22:36:44.917Z,7.35
2019-05-21T22:39:19.328Z,7.30
2019-05-21T22:41:45.591Z,7.27
2019-05-21T22:44:12.598Z,7.29
2019-05-21T22:46:38.851Z,7.23
2019-05-21T22:49:05.086Z,7.15
2019-05-21T22:51:31.343Z,7.08
2019-05-21T22:53:57.578Z,7.02
2019-05-21T22:56:23.830Z,6.96
2019-05-21T22:58:50.063Z,6.89
2019-05-21T23:01:16.631Z,6.84
2019-05-21T23:03:42.956Z,6.78
2019-05-21T23:06:09.409Z,6.75
2019-05-21T23:08:36.064Z,6.72
2019-05-21T23:11:02.311Z,6.69
2019-05-21T23:13:28.551Z,6.64
2019-05-21T23:15:56.003Z,6.57
2019-05-21T23:18:22.245Z,6.51
2019-05-21T23:20:48.987Z,6.45
2019-05-21T23:23:15.322Z,6.38
2019-05-21T23:25:42.960Z,6.32
2019-05-21T23:28:09.502Z,6.28
2019-05-21T23:30:35.731Z,6.24
2019-05-21T23:33:03.823Z,6.20
2019-05-21T23:35:30.022Z,6.16
2019-05-21T23:37:56.272Z,6.14
2019-05-21T23:40:23.798Z,6.10
2019-05-21T23:42:50.035Z,6.10
2019-05-21T23:45:16.559Z,6.05
2019-05-21T23:47:42.906Z,6.00
2019-05-21T23:50:10.551Z,5.95
2019-05-21T23:52:37.410Z,5.94
2019-05-21T23:55:07.250Z,5.93
2019-05-21T23:57:36.222Z,5.92
